KBPI

Details ICAO KBPI
Name BIG PINEY MARBLETON
Region United States
Timezone America/Denver (UTC-7.0)
Plans Departing 3
Arriving 3
Stats Elevation 6,990 ft / 2,131 m (AMSL)
Location 42.580725° -110.107734°
Runways 2
Magnetic Variation 10.977° E
Sunrise 2017-12-11 14:41:58 UTC / 2017-12-11 07:41:58 Local
Sunset 2017-12-11 23:48:36 UTC / 2017-12-11 16:48:36 Local
Advertisement - Login to hide

Runways

ID Width Length Bearing (true) Bearing (mag) Surface Threshold Offset Overrun Length
08 141 ft / 43 m 3,173 ft / 967 m 93.34° 82.36° Dirt 0 ft / 0 m 0 ft / 0 m
13 75 ft / 23 m 6,794 ft / 2,071 m 147.80° 136.82° Asphalt 0 ft / 0 m 0 ft / 0 m
26 141 ft / 43 m 3,173 ft / 967 m 273.35° 262.37° Dirt 0 ft / 0 m 0 ft / 0 m
31 75 ft / 23 m 6,794 ft / 2,071 m 327.80° 316.82° Asphalt 0 ft / 0 m 0 ft / 0 m

Map

Weather


0- 5 10 15 20 25 30 35+ Temperature / ° C

Clouds and Precipitation
Forecast for 2017-12-11 12:00 UTC. Updated 12 minutes ago

Ground ~20,000 ft ~40,000 ft Winds

METAR

KBPI 110653Z AUTO 00000KT 10SM CLR M04/M19 A3052 RMK AO2 SLP332 T10441189 401111094

TAF

KBPI 110529Z 1106/1206 01007KT P6SM SCT250 FM111400 VRB05KT P6SM FEW250 FM111800 35011KT P6SM SCT250

Frequencies

Recorded 135.22 MHz ASOS
Unicom 122.80 MHz CTAF/UNICOM
Warning: Do not use this data for real-world aviation or navigation. No guarantee of current accuracy is given.